Aérodrome :
LOGIN :

S'inscrire | Disclaimer

   EN    FR    IT 

 










Légende :    VFR   VFR Marginal   IFR   IFR Intensif   IFR Très Intensif
Visi : 
Plafond : 
>= 8 km
>= 3000ft
5 à 8 km
1000 à 3000 ft
1500m à 5 km
500 à 1000 ft
800 à 1500m
200 à 500 ft
< 800m
< 200 ft
Symboles :   Orages  Brouillard  Fortes neiges  Fortes précipitations  Vent > 20 kt
SIGMETs :   Divers  Orages  Givrage  Turbulence  Onde Orograph.  Cendres Volcan.






- Altitude de l'aérodrome : 479 ft
- Code IATA : DOL


LFRG - Deauville

DERNIER METAR :
  • 172100Z AUTO 26014G27KT 9000 -RA SCT019/// BKN024/// BKN029/// ///CB 06/04 Q1022 TEMPO SHRA BECMG BKN030

METARs EXPIRÉS :
  • 172030Z AUTO 22010KT 190V250 9999 FEW027/// BKN040/// BKN060/// ///TCU 05/03 Q1022 TEMPO SHRA BECMG 22020G30KT BKN030
  • 172000Z AUTO 23011KT 190V250 9999 SCT028 BKN060 BKN140 06/03 Q1021 TEMPO 4000 SHRAGS BKN020CB BECMG 22020G30KT
  • 171930Z AUTO 23011KT CAVOK 06/03 Q1021 TEMPO 4000 SHRAGS BKN020CB BECMG 22020G30KT
  • 171900Z AUTO 24013KT 9999 SCT020 BKN029 BKN058 06/03 Q1021 TEMPO 24025G40KT 4000 SHRAGS BKN020CB
  • 171830Z AUTO 23012KT 9999 BKN028/// BKN110/// BKN130/// ///TCU 06/03 Q1021 TEMPO 24025G40KT 4000 SHRAGS BKN020CB

TAF TAF LFRG
Valide du 17 à 15h jusqu'au 18 à 00h UTC


171400Z 1715/1724 22020G30KT 9999 BKN030
TEMPO 1715/1721 24025G40KT 4000 SHRAGS BKN020CB
PROB40
TEMPO 1715/1718 2000 +TSRAGS
TEMPO 1721/1724 5000 SHRA
ATIS : +33 2 31 65 65 36



MET'MAP, la Météo Aéronautique d'un coup d'oeil ! - Copyright ORBIFLY Décembre 2007 - Disclaimer

ORBIFLY MET'MAP TEAM :

Programmation & Développement : Alexandra Zaïnal
Sur une idée originale de : Baudouin d'Aumeries
Assistance à la programmation : Marc-Olivier Méhu
Soutien technique & logistique : Manuel Goepfert

Contact : metmap@orbifly.com




SOURCES & CREDITS :

   NOAA